Kiso — JD2019 — position and weather

sailwx.info

Track history (hours):
 
Tides and Currents Weather Stations Pressure Air Temp Water Temp Dewpoint Dewpoint Depression Visibility Wind Speed Wind Dir Waves Ship Positions

Kiso

Last reported at 2018-Jul-13 20:03 UTC. Time now 2018-Jul-16 14:45 UTC.
Position N 34°55' E 140°11'.

Length 200 m; draft 6.7 m.

Type: Passenger vessel. MMSI: 431200673.

Date/timePositionNaut miles runAvg speedWind from/ knotsBaromVisibWave heightAir tempDewpointWater temp
2018-Jul-13 20:03N 34°55' E 140°11'423.6
2018-Jul-13 19:53N 34°53' E 140°07'1422.9
2018-Jul-13 19:15N 34°46' E 139°53'521.6
2018-Jul-13 19:00N 34°43' E 139°47'1020.3
2018-Jul-13 18:29N 34°38' E 139°35'1020.9
2018-Jul-13 18:00N 34°35' E 139°24'2821.5
2018-Jul-13 16:41N 34°28' E 138°51'421.3
2018-Jul-13 16:30N 34°28' E 138°46'1121.1
2018-Jul-13 15:59N 34°27' E 138°33'52 2.2
2018-Jul-12 16:29N 34°39' E 139°34'1020.7
2018-Jul-12 16:00N 34°44' E 139°45'1418.8
2018-Jul-12 15:17N 34°51' E 139°59'519.0
2018-Jul-12 15:00N 34°54' E 140°04'  
2018-Jul-09 20:13N 34°52' E 140°06'621.5
2018-Jul-09 19:57N 34°49' E 140°01'1120.9
2018-Jul-09 19:27N 34°44' E 139°49'1120.2
2018-Jul-09 18:56N 34°40' E 139°37'5 0.2
2018-Jul-08 16:04N 34°43' E 139°42'220.6
2018-Jul-08 15:59N 34°44' E 139°44'1620.1
2018-Jul-08 15:12N 34°52' E 140°00'420.4
2018-Jul-08 15:00N 34°54' E 140°04'  
2018-Jul-05 19:48N 34°50' E 140°01'1421.0
2018-Jul-05 19:09N 34°44' E 139°46'919.2
2018-Jul-05 18:40N 34°40' E 139°36'5 0.2
2018-Jul-04 16:07N 34°43' E 139°41'319.2
2018-Jul-04 15:58N 34°44' E 139°44'1719.3
2018-Jul-04 15:06N 34°52' E 140°02'219.8
2018-Jul-04 15:00N 34°54' E 140°04'  
Track history (hours):
 
Tides and Currents Weather Stations Pressure Air Temp Water Temp Dewpoint Dewpoint Depression Visibility Wind Speed Wind Dir Waves Ship Positions

Kiso

Last reported at 2018-Jul-13 20:03 UTC. Time now 2018-Jul-16 14:45 UTC.
Position N 34°55' E 140°11'.

Length 200 m; draft 6.7 m.

Type: Passenger vessel. MMSI: 431200673.

Date/timePositionNaut miles runAvg speedWind from/ knotsBaromVisibWave heightAir tempDewpointWater temp
2018-Jul-13 20:03N 34°55' E 140°11'423.6
2018-Jul-13 19:53N 34°53' E 140°07'1422.9
2018-Jul-13 19:15N 34°46' E 139°53'521.6
2018-Jul-13 19:00N 34°43' E 139°47'1020.3
2018-Jul-13 18:29N 34°38' E 139°35'1020.9
2018-Jul-13 18:00N 34°35' E 139°24'2821.5
2018-Jul-13 16:41N 34°28' E 138°51'421.3
2018-Jul-13 16:30N 34°28' E 138°46'1121.1
2018-Jul-13 15:59N 34°27' E 138°33'52 2.2
2018-Jul-12 16:29N 34°39' E 139°34'1020.7
2018-Jul-12 16:00N 34°44' E 139°45'1418.8
2018-Jul-12 15:17N 34°51' E 139°59'519.0
2018-Jul-12 15:00N 34°54' E 140°04'  
2018-Jul-09 20:13N 34°52' E 140°06'621.5
2018-Jul-09 19:57N 34°49' E 140°01'1120.9
2018-Jul-09 19:27N 34°44' E 139°49'1120.2
2018-Jul-09 18:56N 34°40' E 139°37'5 0.2
2018-Jul-08 16:04N 34°43' E 139°42'220.6
2018-Jul-08 15:59N 34°44' E 139°44'1620.1
2018-Jul-08 15:12N 34°52' E 140°00'420.4
2018-Jul-08 15:00N 34°54' E 140°04'  
2018-Jul-05 19:48N 34°50' E 140°01'1421.0
2018-Jul-05 19:09N 34°44' E 139°46'919.2
2018-Jul-05 18:40N 34°40' E 139°36'5 0.2
2018-Jul-04 16:07N 34°43' E 139°41'319.2
2018-Jul-04 15:58N 34°44' E 139°44'1719.3
2018-Jul-04 15:06N 34°52' E 140°02'219.8
2018-Jul-04 15:00N 34°54' E 140°04'  

Dump ship's entire track history